Terminal Aerodrome Forecast
Issued by NWS

Home | Current Version | Previous Version | Text Only | Print | Product List | Glossary On
Versions: 1 2 3 4 5 6 7 8 9
000
FTUS45 KPSR 282300
TAFBLH
TAF
KBLH 282327Z 2900/2924 VRB04KT P6SM SCT150 BKN250
     FM290400 32004KT P6SM FEW250
     FM291700 VRB04KT P6SM FEW250=

USA.gov is the U.S. government's official web portal to all federal, state and local government web resources and services.